createdAt,value
2019-04-26T00:01:27.758Z,98521.52
2019-04-26T00:03:57.469Z,98537.78
2019-04-26T00:06:27.546Z,98551.63
2019-04-26T00:09:06.150Z,98557.37
2019-04-26T00:11:46.412Z,98546.48
2019-04-26T00:14:23.474Z,98553.84
2019-04-26T00:16:54.937Z,98554.82
2019-04-26T00:19:24.953Z,98549.32
2019-04-26T00:21:55.218Z,98543.97
2019-04-26T00:24:25.229Z,98546.88
2019-04-26T00:26:54.992Z,98547.22
2019-04-26T00:29:24.515Z,98543.30
2019-04-26T00:31:54.539Z,98554.68
2019-04-26T00:34:24.190Z,98559.44
2019-04-26T00:36:53.900Z,98563.01
2019-04-26T00:39:25.022Z,98552.63
2019-04-26T00:41:55.185Z,98552.87
2019-04-26T00:44:24.947Z,98566.05
2019-04-26T00:46:57.542Z,98556.12
2019-04-26T00:49:28.882Z,98564.78
2019-04-26T00:51:59.419Z,98571.78
2019-04-26T00:54:29.876Z,98562.42
2019-04-26T00:57:00.428Z,98558.02
2019-04-26T00:59:32.704Z,98544.20
2019-04-26T01:02:10.136Z,98522.80
2019-04-26T01:04:39.878Z,98514.52
2019-04-26T01:07:09.598Z,98515.22
2019-04-26T01:09:39.331Z,98502.14
2019-04-26T01:12:09.059Z,98507.38
2019-04-26T01:14:38.817Z,98495.55
2019-04-26T01:17:08.494Z,98489.44
2019-04-26T01:19:40.734Z,98518.05
2019-04-26T01:22:18.383Z,98541.90
2019-04-26T01:24:51.084Z,98562.42
2019-04-26T01:27:23.845Z,98567.30
2019-04-26T01:29:57.491Z,98574.66
2019-04-26T01:32:29.958Z,98569.16
2019-04-26T01:35:00.071Z,98566.61
2019-04-26T01:37:31.324Z,98575.53
2019-04-26T01:40:06.578Z,98582.38
2019-04-26T01:42:45.451Z,98582.38
2019-04-26T01:45:17.473Z,98580.41
2019-04-26T01:47:50.579Z,98593.52
2019-04-26T01:50:24.028Z,98591.67
2019-04-26T01:52:54.848Z,98585.57
2019-04-26T01:55:26.982Z,98590.95
2019-04-26T01:57:58.171Z,98590.20
2019-04-26T02:00:29.600Z,98572.25
2019-04-26T02:03:00.916Z,98574.20
2019-04-26T02:05:30.741Z,98561.88
2019-04-26T02:08:00.783Z,98574.94
2019-04-26T02:10:30.770Z,98581.76
2019-04-26T02:13:01.499Z,98587.88
2019-04-26T02:15:33.632Z,98585.95
2019-04-26T02:18:04.912Z,98584.72
2019-04-26T02:21:04.934Z,98585.43
2019-04-26T02:23:42.331Z,98585.20
2019-04-26T02:26:30.402Z,98587.89
2019-04-26T02:29:00.340Z,98604.98
2019-04-26T02:31:31.434Z,98612.30
2019-04-26T02:34:03.639Z,98617.45
2019-04-26T02:36:54.626Z,98613.76
2019-04-26T02:39:22.942Z,98613.53
2019-04-26T02:41:55.456Z,98597.90
2019-04-26T02:44:31.320Z,98593.75
2019-04-26T02:47:49.423Z,98614.39
2019-04-26T02:50:22.753Z,98614.50
2019-04-26T02:53:25.546Z,98605.25
2019-04-26T02:56:16.732Z,98622.56
2019-04-26T02:59:03.315Z,98620.63
2019-04-26T03:01:35.964Z,98622.71
2019-04-26T03:04:05.420Z,98618.05
2019-04-26T03:06:37.259Z,98616.48
2019-04-26T03:09:08.159Z,98610.36
2019-04-26T03:12:02.137Z,98610.13
2019-04-26T03:14:41.984Z,98614.27
2019-04-26T03:17:17.564Z,98614.50
2019-04-26T03:20:05.331Z,98626.62
2019-04-26T03:22:59.821Z,98630.39
2019-04-26T03:26:05.580Z,98619.63
2019-04-26T03:29:02.356Z,98600.81
2019-04-26T03:31:46.060Z,98594.95
2019-04-26T03:34:14.505Z,98603.74
2019-04-26T03:37:25.416Z,98614.52
2019-04-26T03:40:44.601Z,98617.80
2019-04-26T03:43:48.121Z,98618.55
2019-04-26T03:46:39.052Z,98622.44
2019-04-26T03:49:41.524Z,98638.72
2019-04-26T03:52:52.293Z,98653.98
2019-04-26T03:55:34.590Z,98645.92
2019-04-26T03:59:02.484Z,98647.38
2019-04-26T04:01:39.459Z,98637.37
2019-04-26T04:04:29.984Z,98610.83
2019-04-26T04:07:04.583Z,98612.55
2019-04-26T04:09:35.888Z,98619.76
2019-04-26T04:12:17.147Z,98610.23
2019-04-26T04:15:15.561Z,98628.08
2019-04-26T04:18:03.407Z,98656.05
2019-04-26T04:21:15.426Z,98656.05
2019-04-26T04:24:10.882Z,98666.08
2019-04-26T04:27:14.356Z,98671.31
2019-04-26T04:29:55.339Z,98665.56
2019-04-26T04:32:49.794Z,98681.58
2019-04-26T04:35:23.409Z,98662.54
2019-04-26T04:38:34.401Z,98657.65
2019-04-26T04:41:25.581Z,98655.44
2019-04-26T04:44:30.521Z,98667.55
2019-04-26T04:47:31.004Z,98654.47
2019-04-26T04:50:17.253Z,98662.39
2019-04-26T04:53:37.527Z,98678.03
2019-04-26T04:56:39.424Z,98678.78
2019-04-26T04:59:29.184Z,98675.61
2019-04-26T05:02:08.272Z,98682.70
2019-04-26T05:05:18.676Z,98686.69
2019-04-26T05:08:29.850Z,98687.05
2019-04-26T05:11:18.472Z,98675.34
2019-04-26T05:14:05.450Z,98672.16
2019-04-26T05:17:16.157Z,98673.28
2019-04-26T05:19:53.407Z,98659.22
2019-04-26T05:22:59.413Z,98645.18
2019-04-26T05:26:37.586Z,98657.27
2019-04-26T05:29:33.404Z,98655.93
2019-04-26T05:32:44.049Z,98662.05
2019-04-26T05:35:51.036Z,98662.16
2019-04-26T05:38:40.843Z,98657.39
2019-04-26T05:41:24.652Z,98707.69
2019-04-26T05:44:24.958Z,98729.83
2019-04-26T05:47:35.798Z,98729.58
2019-04-26T05:50:59.324Z,98727.99
2019-04-26T05:54:05.341Z,98731.67
2019-04-26T05:56:59.455Z,98734.25
2019-04-26T05:59:36.973Z,98739.25
2019-04-26T06:02:47.792Z,98747.40
2019-04-26T06:05:38.960Z,98751.70
2019-04-26T06:08:31.187Z,98768.44
2019-04-26T06:11:12.010Z,98796.19
2019-04-26T06:14:00.205Z,98809.72
2019-04-26T06:17:04.329Z,98815.25
2019-04-26T06:20:06.339Z,98820.97
2019-04-26T06:23:00.658Z,98826.22
2019-04-26T06:25:42.897Z,98835.03
2019-04-26T06:28:35.392Z,98834.06
2019-04-26T06:31:31.670Z,98828.31
2019-04-26T06:34:11.914Z,98821.09
2019-04-26T06:36:59.874Z,98817.89
2019-04-26T06:39:43.153Z,98818.27
2019-04-26T06:42:32.513Z,98819.23
2019-04-26T06:45:43.229Z,98814.20
2019-04-26T06:48:39.026Z,98807.89
2019-04-26T06:51:32.156Z,98807.98
2019-04-26T06:54:17.031Z,98815.75
2019-04-26T06:57:14.882Z,98816.96
2019-04-26T07:00:18.586Z,98815.77
2019-04-26T07:03:11.189Z,98811.73
2019-04-26T07:05:51.893Z,98818.47
2019-04-26T07:08:56.421Z,98823.00
2019-04-26T07:12:02.957Z,98817.02
2019-04-26T07:15:12.812Z,98805.83
2019-04-26T07:18:22.256Z,98818.91
2019-04-26T07:21:34.609Z,98840.30
2019-04-26T07:25:17.811Z,98839.19
2019-04-26T07:28:25.535Z,98833.97
2019-04-26T07:31:15.560Z,98836.78
2019-04-26T07:34:12.690Z,98831.66
2019-04-26T07:37:28.443Z,98825.15
2019-04-26T07:40:26.834Z,98830.67
2019-04-26T07:43:32.825Z,98836.18
2019-04-26T07:46:51.321Z,98837.41
2019-04-26T07:49:48.224Z,98832.52
2019-04-26T07:52:57.594Z,98830.91
2019-04-26T07:56:05.374Z,98827.73
2019-04-26T07:59:22.610Z,98830.30
2019-04-26T08:02:21.397Z,98843.64
2019-04-26T08:04:59.294Z,98844.84
2019-04-26T08:07:33.801Z,98836.75
2019-04-26T08:10:17.130Z,98834.09
2019-04-26T08:12:51.998Z,98833.46
2019-04-26T08:15:30.861Z,98841.87
2019-04-26T08:18:20.475Z,98844.70
2019-04-26T08:20:54.456Z,98841.05
2019-04-26T08:23:41.949Z,98850.10
2019-04-26T08:26:09.152Z,98855.67
2019-04-26T08:28:41.991Z,98854.12
2019-04-26T08:31:20.021Z,98853.70
2019-04-26T08:33:52.445Z,98857.78
2019-04-26T08:36:27.125Z,98852.28
2019-04-26T08:39:01.679Z,98846.77
2019-04-26T08:41:35.280Z,98839.28
2019-04-26T08:44:11.152Z,98848.52
2019-04-26T08:46:53.974Z,98862.60
2019-04-26T08:49:31.323Z,98881.52
2019-04-26T08:52:13.869Z,98892.19
2019-04-26T08:54:40.301Z,98894.63
2019-04-26T08:57:12.503Z,98897.66
2019-04-26T08:59:49.594Z,98887.33
2019-04-26T09:02:36.231Z,98885.75
2019-04-26T09:05:19.445Z,98891.22
2019-04-26T09:07:53.373Z,98898.52
2019-04-26T09:10:27.459Z,98913.44
2019-04-26T09:13:00.787Z,98917.71
2019-04-26T09:15:44.565Z,98925.11
2019-04-26T09:18:15.048Z,98920.05
2019-04-26T09:20:45.366Z,98927.56
2019-04-26T09:23:23.098Z,98926.67
2019-04-26T09:25:59.272Z,98930.75
2019-04-26T09:28:47.200Z,98928.63
2019-04-26T09:31:35.292Z,98936.72
2019-04-26T09:34:15.756Z,98934.30
2019-04-26T09:36:45.978Z,98931.58
2019-04-26T09:39:16.959Z,98933.42
2019-04-26T09:41:48.018Z,98924.70
2019-04-26T09:44:22.630Z,98921.29
2019-04-26T09:47:06.315Z,98913.47
2019-04-26T09:49:42.310Z,98916.38
2019-04-26T09:52:16.869Z,98914.86
2019-04-26T09:54:47.225Z,98919.08
2019-04-26T09:57:17.378Z,98919.89
2019-04-26T09:59:47.642Z,98931.08
2019-04-26T10:02:17.914Z,98927.33
2019-04-26T10:04:48.212Z,98935.44
2019-04-26T10:07:18.907Z,98940.36
2019-04-26T10:09:56.002Z,98939.44
2019-04-26T10:12:24.320Z,98946.14
2019-04-26T10:14:56.293Z,98950.79
2019-04-26T10:17:28.203Z,98958.31
2019-04-26T10:19:58.489Z,98967.03
2019-04-26T10:22:30.489Z,98964.32
2019-04-26T10:25:02.508Z,98959.91
2019-04-26T10:27:36.402Z,98952.14
2019-04-26T10:30:11.538Z,98943.53
2019-04-26T10:32:41.885Z,98941.47
2019-04-26T10:35:12.322Z,98940.38
2019-04-26T10:37:43.900Z,98946.20
2019-04-26T10:40:15.144Z,98946.86
2019-04-26T10:42:45.575Z,98953.00
2019-04-26T10:45:16.417Z,98944.96
2019-04-26T10:47:47.006Z,98945.36
2019-04-26T10:50:17.849Z,98950.03
2019-04-26T10:52:54.071Z,98942.89
2019-04-26T10:55:21.492Z,98932.72
2019-04-26T10:58:00.184Z,98932.63
2019-04-26T11:00:32.041Z,98929.98
2019-04-26T11:03:04.448Z,98925.04
2019-04-26T11:05:35.086Z,98917.13
2019-04-26T11:08:05.889Z,98912.52
2019-04-26T11:10:48.594Z,98909.13
2019-04-26T11:13:11.200Z,98909.48
2019-04-26T11:15:43.044Z,98910.13
2019-04-26T11:18:13.291Z,98909.38
2019-04-26T11:20:45.595Z,98905.28
2019-04-26T11:23:15.634Z,98903.70
2019-04-26T11:25:47.208Z,98900.25
2019-04-26T11:28:21.409Z,98902.03
2019-04-26T11:30:52.040Z,98911.20
2019-04-26T11:33:21.159Z,98905.47
2019-04-26T11:35:51.409Z,98914.13
2019-04-26T11:38:22.052Z,98913.00
2019-04-26T11:41:05.376Z,98916.28
2019-04-26T11:43:23.633Z,98913.59
2019-04-26T11:46:03.719Z,98906.66
2019-04-26T11:48:29.181Z,98909.96
2019-04-26T11:50:58.108Z,98915.82
2019-04-26T11:53:28.313Z,98916.33
2019-04-26T11:56:04.387Z,98910.61
2019-04-26T11:58:32.300Z,98919.75
2019-04-26T12:01:04.305Z,98917.69
2019-04-26T12:03:34.973Z,98913.65
2019-04-26T12:06:06.563Z,98911.64
2019-04-26T12:08:38.742Z,98914.91
2019-04-26T12:11:17.809Z,98922.95
2019-04-26T12:13:40.151Z,98928.75
2019-04-26T12:16:10.596Z,98918.86
2019-04-26T12:18:44.239Z,98915.56
2019-04-26T12:21:12.059Z,98921.05
2019-04-26T12:23:42.452Z,98921.63
2019-04-26T12:26:17.335Z,98920.94
2019-04-26T12:28:45.966Z,98914.44
2019-04-26T12:31:16.127Z,98912.29
2019-04-26T12:33:47.987Z,98920.58
2019-04-26T12:36:18.340Z,98917.19
2019-04-26T12:38:49.996Z,98918.20
2019-04-26T12:41:30.056Z,98915.68
2019-04-26T12:43:54.554Z,98919.34
2019-04-26T12:46:43.201Z,98927.09
2019-04-26T12:49:13.912Z,98928.43
2019-04-26T12:51:47.314Z,98932.05
2019-04-26T12:54:16.663Z,98934.09
2019-04-26T12:56:47.149Z,98929.36
2019-04-26T12:59:17.246Z,98925.66
2019-04-26T13:01:48.198Z,98932.45
2019-04-26T13:04:18.642Z,98937.55
2019-04-26T13:06:50.410Z,98936.89
2019-04-26T13:09:21.948Z,98926.77
2019-04-26T13:12:09.961Z,98929.84
2019-04-26T13:14:44.381Z,98930.95
2019-04-26T13:17:24.675Z,98933.87
2019-04-26T13:19:55.497Z,98929.56
2019-04-26T13:22:25.856Z,98928.86
2019-04-26T13:24:56.292Z,98928.44
2019-04-26T13:27:26.794Z,98931.91
2019-04-26T13:30:02.506Z,98925.58
2019-04-26T13:32:29.348Z,98932.02
2019-04-26T13:34:59.591Z,98936.56
2019-04-26T13:37:32.203Z,98945.78
2019-04-26T13:40:01.585Z,98944.45
2019-04-26T13:42:32.277Z,98930.16
2019-04-26T13:45:04.366Z,98928.48
2019-04-26T13:47:35.367Z,98927.88
2019-04-26T13:50:22.322Z,98927.64
2019-04-26T13:52:51.333Z,98928.55
2019-04-26T13:55:25.361Z,98925.81
2019-04-26T13:57:55.965Z,98920.70
2019-04-26T14:00:26.321Z,98918.17
2019-04-26T14:02:56.778Z,98916.11
2019-04-26T14:05:27.889Z,98919.50
2019-04-26T14:07:59.510Z,98922.39
2019-04-26T14:10:30.108Z,98926.30
2019-04-26T14:13:00.450Z,98929.73
2019-04-26T14:15:30.914Z,98925.27
2019-04-26T14:18:04.395Z,98928.82
2019-04-26T14:20:34.935Z,98929.13
2019-04-26T14:23:19.573Z,98936.31
2019-04-26T14:26:01.146Z,98924.05
2019-04-26T14:28:32.363Z,98928.67
2019-04-26T14:31:02.720Z,98919.14
2019-04-26T14:33:33.554Z,98920.55
2019-04-26T14:36:16.657Z,98917.44
2019-04-26T14:38:40.055Z,98914.25
2019-04-26T14:41:09.414Z,98909.27
2019-04-26T14:43:41.625Z,98910.66
2019-04-26T14:46:14.729Z,98904.70
2019-04-26T14:49:00.643Z,98905.93
2019-04-26T14:51:19.581Z,98901.52
2019-04-26T14:53:50.047Z,98894.85
2019-04-26T14:56:19.581Z,98886.18
2019-04-26T14:58:49.837Z,98894.11
2019-04-26T15:01:22.564Z,98895.94
2019-04-26T15:03:57.125Z,98894.33
2019-04-26T15:06:27.529Z,98899.64
2019-04-26T15:08:57.917Z,98910.81
2019-04-26T15:11:28.247Z,98900.34
2019-04-26T15:13:59.955Z,98897.39
2019-04-26T15:16:30.157Z,98900.13
2019-04-26T15:19:00.283Z,98897.67
2019-04-26T15:21:31.764Z,98906.09
2019-04-26T15:24:02.921Z,98889.38
2019-04-26T15:26:34.051Z,98892.28
2019-04-26T15:29:04.514Z,98889.34
2019-04-26T15:31:34.986Z,98887.16
2019-04-26T15:34:05.460Z,98887.34
2019-04-26T15:36:35.617Z,98890.09
2019-04-26T15:39:13.632Z,98894.72
2019-04-26T15:41:47.039Z,98889.77
2019-04-26T15:44:20.285Z,98889.15
2019-04-26T15:47:05.524Z,98900.77
2019-04-26T15:49:39.372Z,98894.30
2019-04-26T15:52:10.045Z,98892.25
2019-04-26T15:54:40.306Z,98884.14
2019-04-26T15:57:12.096Z,98892.49
2019-04-26T15:59:43.031Z,98884.80
2019-04-26T16:02:13.431Z,98892.59
2019-04-26T16:04:47.353Z,98887.56
2019-04-26T16:07:26.976Z,98886.86
2019-04-26T16:09:53.366Z,98879.64
2019-04-26T16:12:25.792Z,98881.08
2019-04-26T16:14:54.930Z,98880.54
2019-04-26T16:17:25.963Z,98889.23
2019-04-26T16:20:15.420Z,98891.50
2019-04-26T16:22:48.919Z,98892.83
2019-04-26T16:25:17.920Z,98895.23
2019-04-26T16:27:51.794Z,98897.06
2019-04-26T16:30:28.519Z,98899.63
2019-04-26T16:33:09.786Z,98902.48
2019-04-26T16:35:42.040Z,98904.83
2019-04-26T16:38:29.418Z,98902.87
2019-04-26T16:41:00.204Z,98900.88
2019-04-26T16:43:37.701Z,98901.05
2019-04-26T16:46:02.624Z,98900.22
2019-04-26T16:48:33.406Z,98906.48
2019-04-26T16:51:08.304Z,98904.64
2019-04-26T16:53:52.135Z,98904.05
2019-04-26T16:56:08.752Z,98904.34
2019-04-26T16:58:45.053Z,98908.50
2019-04-26T17:01:12.401Z,98910.79
2019-04-26T17:03:47.963Z,98904.13
2019-04-26T17:06:16.367Z,98906.38
2019-04-26T17:08:49.949Z,98909.19
2019-04-26T17:11:20.003Z,98911.37
2019-04-26T17:13:54.552Z,98913.02
2019-04-26T17:16:25.677Z,98919.91
2019-04-26T17:18:59.538Z,98914.05
2019-04-26T17:21:28.879Z,98911.53
2019-04-26T17:24:13.006Z,98915.36
2019-04-26T17:26:50.752Z,98909.59
2019-04-26T17:29:22.624Z,98920.19
2019-04-26T17:31:54.578Z,98921.56
2019-04-26T17:34:28.971Z,98919.53
2019-04-26T17:36:58.163Z,98921.39
2019-04-26T17:39:30.301Z,98920.03
2019-04-26T17:42:01.155Z,98919.99
2019-04-26T17:44:34.003Z,98921.70
2019-04-26T17:47:04.199Z,98917.94
2019-04-26T17:49:35.672Z,98918.91
2019-04-26T17:52:07.541Z,98919.37
2019-04-26T17:54:46.712Z,98917.83
2019-04-26T17:57:12.687Z,98918.14
2019-04-26T17:59:47.482Z,98911.09
2019-04-26T18:02:25.762Z,98917.84
2019-04-26T18:04:57.856Z,98923.72
2019-04-26T18:07:37.558Z,98923.45
2019-04-26T18:09:50.690Z,98922.88
2019-04-26T18:12:22.701Z,98925.56
2019-04-26T18:14:53.786Z,98929.57
2019-04-26T18:17:38.905Z,98929.26
2019-04-26T18:20:21.150Z,98931.31
2019-04-26T18:23:05.193Z,98930.62
2019-04-26T18:25:33.017Z,98928.11
2019-04-26T18:28:04.651Z,98937.61
2019-04-26T18:30:34.902Z,98940.36
2019-04-26T18:33:05.559Z,98932.37
2019-04-26T18:35:36.046Z,98932.59
2019-04-26T18:38:08.560Z,98932.44
2019-04-26T18:40:57.208Z,98933.33
2019-04-26T18:43:12.541Z,98943.08
2019-04-26T18:45:44.403Z,98941.41
2019-04-26T18:48:15.055Z,98937.94
2019-04-26T18:50:46.056Z,98950.93
2019-04-26T18:53:16.124Z,98945.16
2019-04-26T18:55:48.002Z,98948.32
2019-04-26T18:58:18.484Z,98951.91
2019-04-26T19:00:50.510Z,98953.66
2019-04-26T19:03:19.642Z,98956.73
2019-04-26T19:05:49.732Z,98957.86
2019-04-26T19:08:20.895Z,98970.52
2019-04-26T19:10:59.216Z,98970.92
2019-04-26T19:13:36.438Z,98974.21
2019-04-26T19:16:10.624Z,98977.34
2019-04-26T19:18:53.208Z,98979.91
2019-04-26T19:21:40.661Z,98986.79
2019-04-26T19:24:17.221Z,98990.81
2019-04-26T19:26:45.363Z,99002.74
2019-04-26T19:29:18.055Z,99002.10
2019-04-26T19:31:46.518Z,99007.53
2019-04-26T19:34:17.792Z,99006.48
2019-04-26T19:36:47.715Z,99005.91
2019-04-26T19:39:22.841Z,99006.12
2019-04-26T19:41:51.988Z,99006.21
2019-04-26T19:44:24.074Z,99011.27
2019-04-26T19:47:10.010Z,99017.69
2019-04-26T19:49:41.445Z,99012.22
2019-04-26T19:52:12.640Z,99017.44
2019-04-26T19:54:46.543Z,99024.57
2019-04-26T19:57:21.709Z,99028.62
2019-04-26T19:59:52.604Z,99026.73
2019-04-26T20:02:22.429Z,99026.16
2019-04-26T20:04:52.177Z,99028.30
2019-04-26T20:07:24.233Z,99035.27
2019-04-26T20:09:56.359Z,99038.25
2019-04-26T20:12:25.330Z,99039.27
2019-04-26T20:14:58.474Z,99035.58
2019-04-26T20:17:38.539Z,99038.25
2019-04-26T20:20:18.974Z,99039.05
2019-04-26T20:22:42.011Z,99033.63
2019-04-26T20:25:12.001Z,99030.31
2019-04-26T20:27:41.828Z,99040.75
2019-04-26T20:30:13.451Z,99039.11
2019-04-26T20:32:45.963Z,99030.95
2019-04-26T20:35:26.939Z,99039.56
2019-04-26T20:37:56.286Z,99035.56
2019-04-26T20:40:25.811Z,99038.34
2019-04-26T20:43:01.728Z,99043.28
2019-04-26T20:45:38.722Z,99043.77
2019-04-26T20:47:58.321Z,99043.83
2019-04-26T20:50:32.637Z,99049.05
2019-04-26T20:53:00.940Z,99051.58
2019-04-26T20:55:34.510Z,99042.16
2019-04-26T20:58:05.779Z,99048.30
2019-04-26T21:00:36.557Z,99045.23
2019-04-26T21:03:06.339Z,99056.66
2019-04-26T21:05:45.909Z,99052.30
2019-04-26T21:08:08.353Z,99053.68
2019-04-26T21:10:38.082Z,99056.38
2019-04-26T21:13:08.819Z,99060.44
2019-04-26T21:15:38.590Z,99055.41
2019-04-26T21:18:08.383Z,99059.70
2019-04-26T21:20:38.148Z,99054.11
2019-04-26T21:23:07.929Z,99056.64
2019-04-26T21:25:39.224Z,99059.69
2019-04-26T21:28:11.598Z,99053.63
2019-04-26T21:30:59.127Z,99057.55
2019-04-26T21:33:35.250Z,99056.98
2019-04-26T21:36:08.705Z,99056.20
2019-04-26T21:38:45.555Z,99058.09
2019-04-26T21:41:19.358Z,99056.08
2019-04-26T21:43:49.018Z,99062.34
2019-04-26T21:46:20.020Z,99051.88
2019-04-26T21:48:53.457Z,99056.94
2019-04-26T21:51:23.195Z,99054.23
2019-04-26T21:53:53.085Z,99057.06
2019-04-26T21:56:23.542Z,99061.00
2019-04-26T21:58:53.450Z,99058.30
2019-04-26T22:01:25.255Z,99061.61
2019-04-26T22:03:58.273Z,99063.69
2019-04-26T22:06:28.674Z,99055.84
2019-04-26T22:09:14.497Z,99057.38
2019-04-26T22:11:44.472Z,99057.88
2019-04-26T22:14:20.174Z,99055.85
2019-04-26T22:17:05.526Z,99058.09
2019-04-26T22:19:37.035Z,99050.39
2019-04-26T22:22:06.910Z,99051.33
2019-04-26T22:24:43.937Z,99053.78
2019-04-26T22:27:17.368Z,99049.73
2019-04-26T22:29:47.632Z,99053.80
2019-04-26T22:32:19.103Z,99049.02
2019-04-26T22:34:48.222Z,99050.39
2019-04-26T22:37:29.154Z,99046.85
2019-04-26T22:39:49.310Z,99042.66
2019-04-26T22:42:19.856Z,99045.63
2019-04-26T22:44:54.001Z,99043.56
2019-04-26T22:47:40.860Z,99049.22
2019-04-26T22:50:07.161Z,99049.63
2019-04-26T22:52:38.404Z,99056.13
2019-04-26T22:55:09.210Z,99051.83
2019-04-26T22:57:38.740Z,99045.38
2019-04-26T23:00:08.827Z,99053.80
2019-04-26T23:02:38.479Z,99056.16
2019-04-26T23:05:08.407Z,99053.97
2019-04-26T23:07:38.972Z,99054.97
2019-04-26T23:10:10.498Z,99057.15
2019-04-26T23:12:57.955Z,99061.19
2019-04-26T23:15:47.813Z,99063.06
2019-04-26T23:18:24.988Z,99062.89
2019-04-26T23:20:56.234Z,99060.80
2019-04-26T23:23:25.974Z,99065.71
2019-04-26T23:25:55.615Z,99065.11
2019-04-26T23:28:27.696Z,99058.97
2019-04-26T23:30:56.826Z,99059.84
2019-04-26T23:33:26.484Z,99056.87
2019-04-26T23:35:56.196Z,99057.02
2019-04-26T23:38:25.824Z,99053.47
2019-04-26T23:40:57.227Z,99059.19
2019-04-26T23:43:27.128Z,99058.58
2019-04-26T23:45:56.780Z,99058.10
2019-04-26T23:48:26.482Z,99055.89
2019-04-26T23:50:59.846Z,99049.53
2019-04-26T23:53:27.451Z,99049.28
2019-04-26T23:55:57.240Z,99050.23
2019-04-26T23:58:26.865Z,99045.48
